createdAt,value
2022-09-11T00:01:40.679Z,95051.22
2022-09-11T00:04:09.060Z,95058.28
2022-09-11T00:06:37.338Z,95058.03
2022-09-11T00:09:07.448Z,95052.16
2022-09-11T00:11:40.871Z,95062.81
2022-09-11T00:14:10.375Z,95052.19
2022-09-11T00:16:41.418Z,95053.09
2022-09-11T00:19:13.100Z,95050.50
2022-09-11T00:21:41.434Z,95049.47
2022-09-11T00:24:10.399Z,95051.84
2022-09-11T00:26:41.256Z,95047.00
2022-09-11T00:29:09.667Z,95047.31
2022-09-11T00:31:37.973Z,95046.28
2022-09-11T00:34:07.043Z,95055.31
2022-09-11T00:36:36.405Z,95060.56
2022-09-11T00:39:05.327Z,94976.56
2022-09-11T00:41:36.606Z,95056.31
2022-09-11T00:44:08.505Z,95050.44
2022-09-11T00:46:41.448Z,95057.06
2022-09-11T00:49:24.955Z,95054.72
2022-09-11T00:51:57.120Z,95049.59
2022-09-11T00:54:31.106Z,95051.69
2022-09-11T00:57:01.574Z,95062.38
2022-09-11T00:59:32.923Z,95063.06
2022-09-11T01:02:01.303Z,95051.75
2022-09-11T01:04:29.851Z,95049.16
2022-09-11T01:07:01.020Z,95049.25
2022-09-11T01:09:31.737Z,95046.09
2022-09-11T01:12:09.368Z,95044.84
2022-09-11T01:14:49.059Z,95055.59
2022-09-11T01:17:25.867Z,95058.53
2022-09-11T01:20:17.968Z,95050.44
2022-09-11T01:23:07.549Z,95059.19
2022-09-11T01:25:53.500Z,95061.09
2022-09-11T01:28:28.260Z,95039.91
2022-09-11T01:31:02.597Z,95049.97
2022-09-11T01:33:37.119Z,95055.44
2022-09-11T01:36:10.117Z,95048.16
2022-09-11T01:38:43.668Z,95047.91
2022-09-11T01:41:17.279Z,95053.59
2022-09-11T01:43:52.750Z,95054.78
2022-09-11T01:46:26.147Z,95047.69
2022-09-11T01:49:00.548Z,95050.94
2022-09-11T01:51:32.495Z,95043.78
2022-09-11T01:54:02.640Z,95040.06
2022-09-11T01:56:36.568Z,95046.72
2022-09-11T01:59:10.409Z,95043.09
2022-09-11T02:01:42.419Z,95055.69
2022-09-11T02:04:15.358Z,95046.69
2022-09-11T02:06:47.672Z,95049.81
2022-09-11T02:09:21.694Z,95044.88
2022-09-11T02:11:56.228Z,95045.63
2022-09-11T02:14:31.430Z,94984.25
2022-09-11T02:17:09.131Z,95052.91
2022-09-11T02:19:41.044Z,95051.66
2022-09-11T02:22:09.662Z,95051.13
2022-09-11T02:24:37.934Z,95041.03
2022-09-11T02:27:08.753Z,95042.38
2022-09-11T02:29:39.654Z,95045.16
2022-09-11T02:32:11.027Z,95049.84
2022-09-11T02:34:42.064Z,95047.22
2022-09-11T02:37:20.472Z,95053.88
2022-09-11T02:40:10.700Z,95057.91
2022-09-11T02:42:49.453Z,95055.00
2022-09-11T02:45:33.025Z,95053.88
2022-09-11T02:48:17.129Z,95052.28
2022-09-11T02:50:52.547Z,95059.94
2022-09-11T02:53:27.093Z,95057.06
2022-09-11T02:56:02.836Z,95061.53
2022-09-11T02:58:36.865Z,95066.19
2022-09-11T03:01:09.625Z,95054.66
2022-09-11T03:03:41.518Z,95057.16
2022-09-11T03:06:15.375Z,94976.91
2022-09-11T03:08:43.734Z,95050.94
2022-09-11T03:11:12.071Z,95025.25
2022-09-11T03:13:40.355Z,95057.84
2022-09-11T03:16:10.240Z,95054.06
2022-09-11T03:18:38.611Z,95050.50
2022-09-11T03:21:07.234Z,95062.06
2022-09-11T03:23:35.565Z,95058.69
2022-09-11T03:26:03.831Z,95051.94
2022-09-11T03:28:32.329Z,95059.13
2022-09-11T03:31:00.989Z,95070.41
2022-09-11T03:33:30.749Z,95067.72
2022-09-11T03:35:59.733Z,95068.63
2022-09-11T03:38:28.043Z,95076.28
2022-09-11T03:40:56.628Z,95071.16
2022-09-11T03:43:24.814Z,95070.31
2022-09-11T03:45:53.583Z,95076.91
2022-09-11T03:48:21.983Z,95075.06
2022-09-11T03:50:51.944Z,95068.63
2022-09-11T03:53:20.346Z,95079.53
2022-09-11T03:55:50.177Z,95080.22
2022-09-11T03:58:19.143Z,95084.22
2022-09-11T04:00:47.861Z,95089.91
2022-09-11T04:03:17.466Z,95091.03
2022-09-11T04:05:59.535Z,95093.97
2022-09-11T04:08:28.140Z,95082.97
2022-09-11T04:11:00.636Z,95079.28
2022-09-11T04:13:30.527Z,95073.00
2022-09-11T04:16:03.318Z,95084.44
2022-09-11T04:18:32.939Z,95081.81
2022-09-11T04:21:05.117Z,95095.13
2022-09-11T04:23:34.191Z,95085.81
2022-09-11T04:26:03.023Z,95087.19
2022-09-11T04:28:32.975Z,95085.97
2022-09-11T04:31:03.923Z,95093.84
2022-09-11T04:33:32.247Z,95086.69
2022-09-11T04:36:07.546Z,95093.72
2022-09-11T04:38:36.719Z,95090.38
2022-09-11T04:41:06.444Z,95087.56
2022-09-11T04:43:35.931Z,95080.28
2022-09-11T04:46:04.929Z,95094.19
2022-09-11T04:48:33.256Z,95092.50
2022-09-11T04:51:03.740Z,95091.72
2022-09-11T04:53:34.003Z,95081.63
2022-09-11T04:56:07.464Z,95096.19
2022-09-11T04:58:36.939Z,95095.53
2022-09-11T05:01:08.287Z,95087.66
2022-09-11T05:03:36.570Z,95083.66
2022-09-11T05:06:25.034Z,95087.91
2022-09-11T05:08:54.751Z,95087.31
2022-09-11T05:11:23.016Z,95089.09
2022-09-11T05:13:51.316Z,95087.50
2022-09-11T05:16:19.749Z,95086.09
2022-09-11T05:18:52.792Z,95079.38
2022-09-11T05:21:22.759Z,95081.28
2022-09-11T05:23:52.623Z,95084.66
2022-09-11T05:26:24.104Z,95032.59
2022-09-11T05:28:55.837Z,95083.84
2022-09-11T05:31:25.434Z,95087.28
2022-09-11T05:33:56.824Z,95091.06
2022-09-11T05:36:26.449Z,95088.97
2022-09-11T05:38:54.988Z,95091.97
2022-09-11T05:41:24.797Z,95083.16
2022-09-11T05:43:53.184Z,95089.63
2022-09-11T05:46:22.471Z,95083.44
2022-09-11T05:48:50.853Z,95077.66
2022-09-11T05:51:21.507Z,95076.31
2022-09-11T05:53:50.501Z,95034.66
2022-09-11T05:56:20.849Z,95072.44
2022-09-11T05:58:51.905Z,94997.38
2022-09-11T06:01:22.764Z,95061.09
2022-09-11T06:03:51.623Z,95065.09
2022-09-11T06:06:22.444Z,95056.97
2022-09-11T06:08:52.036Z,95055.16
2022-09-11T06:11:22.199Z,95048.81
2022-09-11T06:13:52.670Z,95051.53
2022-09-11T06:16:22.681Z,95047.06
2022-09-11T06:18:52.531Z,95044.78
2022-09-11T06:21:23.336Z,95055.50
2022-09-11T06:23:53.381Z,95059.09
2022-09-11T06:26:23.533Z,95058.19
2022-09-11T06:28:53.687Z,95061.38
2022-09-11T06:31:24.455Z,95043.09
2022-09-11T06:33:53.196Z,95050.75
2022-09-11T06:36:23.179Z,95061.00
2022-09-11T06:38:55.530Z,95062.03
2022-09-11T06:41:24.936Z,95056.72
2022-09-11T06:43:55.177Z,95016.78
2022-09-11T06:46:25.289Z,95060.19
2022-09-11T06:48:55.032Z,94986.84
2022-09-11T06:51:24.236Z,95008.00
2022-09-11T06:53:56.372Z,94987.34
2022-09-11T06:56:25.064Z,95040.78
2022-09-11T06:58:54.764Z,95030.53
2022-09-11T07:01:24.146Z,95052.94
2022-09-11T07:03:54.173Z,95051.63
2022-09-11T07:06:24.295Z,95024.06
2022-09-11T07:08:53.594Z,95051.94
2022-09-11T07:11:22.129Z,95045.47
2022-09-11T07:13:50.553Z,95056.44
2022-09-11T07:16:20.265Z,94966.84
2022-09-11T07:18:49.098Z,95032.59
2022-09-11T07:21:19.136Z,95045.03
2022-09-11T07:23:49.606Z,94991.66
2022-09-11T07:26:18.813Z,94993.44
2022-09-11T07:28:48.941Z,95048.91
2022-09-11T07:31:21.222Z,95048.25
2022-09-11T07:33:50.949Z,95051.16
2022-09-11T07:36:20.344Z,94995.88
2022-09-11T07:38:50.295Z,95050.59
2022-09-11T07:41:21.449Z,95053.03
2022-09-11T07:43:54.092Z,95048.72
2022-09-11T07:46:24.675Z,95041.59
2022-09-11T07:48:53.060Z,95038.56
2022-09-11T07:51:21.486Z,95037.03
2022-09-11T07:53:51.920Z,95016.84
2022-09-11T07:56:23.336Z,95028.78
2022-09-11T07:58:53.023Z,95023.75
2022-09-11T08:01:24.690Z,94965.59
2022-09-11T08:03:57.101Z,95027.63
2022-09-11T08:06:27.213Z,95023.31
2022-09-11T08:08:56.764Z,95027.69
2022-09-11T08:11:26.404Z,95022.03
2022-09-11T08:13:56.107Z,94991.50
2022-09-11T08:16:27.906Z,95017.25
2022-09-11T08:18:57.083Z,95017.63
2022-09-11T08:21:26.276Z,95011.28
2022-09-11T08:23:54.841Z,95017.19
2022-09-11T08:26:26.255Z,94957.03
2022-09-11T08:28:56.592Z,95008.94
2022-09-11T08:31:29.187Z,95007.53
2022-09-11T08:33:58.102Z,95010.16
2022-09-11T08:36:26.728Z,94995.16
2022-09-11T08:38:55.405Z,94990.69
2022-09-11T08:41:34.075Z,94987.75
2022-09-11T08:44:07.668Z,94955.72
2022-09-11T08:46:41.313Z,94938.69
2022-09-11T08:49:19.130Z,94978.00
2022-09-11T08:51:50.140Z,94976.78
2022-09-11T08:54:27.856Z,94969.59
2022-09-11T08:57:11.532Z,94978.69
2022-09-11T08:59:56.787Z,94964.03
2022-09-11T09:02:47.020Z,94965.69
2022-09-11T09:05:26.779Z,94960.06
2022-09-11T09:08:12.281Z,94899.06
2022-09-11T09:10:51.425Z,94954.81
2022-09-11T09:13:37.909Z,94925.94
2022-09-11T09:16:21.032Z,94941.09
2022-09-11T09:18:55.283Z,94941.75
2022-09-11T09:21:31.132Z,94947.84
2022-09-11T09:24:04.284Z,94935.16
2022-09-11T09:26:38.630Z,94934.50
2022-09-11T09:29:11.149Z,94909.78
2022-09-11T09:31:41.461Z,94932.59
2022-09-11T09:34:16.635Z,94925.19
2022-09-11T09:36:51.521Z,94925.91
2022-09-11T09:39:23.037Z,94914.31
2022-09-11T09:42:09.979Z,94914.13
2022-09-11T09:44:55.243Z,94915.63
2022-09-11T09:47:24.287Z,94905.47
2022-09-11T09:49:54.941Z,94907.88
2022-09-11T09:52:25.072Z,94904.53
2022-09-11T09:54:58.517Z,94904.06
2022-09-11T09:57:31.591Z,94916.06
2022-09-11T10:00:06.773Z,94896.06
2022-09-11T10:02:40.376Z,94900.19
2022-09-11T10:05:19.264Z,94903.84
2022-09-11T10:07:49.499Z,94894.22
2022-09-11T10:10:27.723Z,94847.53
2022-09-11T10:13:17.712Z,94885.38
2022-09-11T10:15:50.474Z,94885.06
2022-09-11T10:18:44.047Z,94883.56
2022-09-11T10:21:23.121Z,94877.13
2022-09-11T10:23:55.004Z,94887.16
2022-09-11T10:26:29.044Z,94875.41
2022-09-11T10:29:02.944Z,94878.38
2022-09-11T10:31:31.306Z,94876.47
2022-09-11T10:34:00.989Z,94862.44
2022-09-11T10:36:31.836Z,94875.22
2022-09-11T10:39:02.326Z,94872.69
2022-09-11T10:41:34.309Z,94879.47
2022-09-11T10:44:04.355Z,94876.34
2022-09-11T10:46:39.155Z,94874.13
2022-09-11T10:49:18.300Z,94867.13
2022-09-11T10:52:02.454Z,94863.63
2022-09-11T10:54:48.137Z,94863.47
2022-09-11T10:57:22.533Z,94863.50
2022-09-11T11:00:13.569Z,94866.47
2022-09-11T11:02:45.656Z,94865.69
2022-09-11T11:05:21.510Z,94863.72
2022-09-11T11:08:14.893Z,94855.44
2022-09-11T11:11:02.530Z,94848.84
2022-09-11T11:13:47.133Z,94852.50
2022-09-11T11:16:22.516Z,94850.84
2022-09-11T11:19:08.196Z,94842.91
2022-09-11T11:21:52.734Z,94829.41
2022-09-11T11:24:38.273Z,94827.13
2022-09-11T11:27:27.563Z,94839.47
2022-09-11T11:30:11.348Z,94842.94
2022-09-11T11:33:03.469Z,94833.75
2022-09-11T11:35:38.462Z,94829.84
2022-09-11T11:38:12.856Z,94831.00
2022-09-11T11:40:46.430Z,94823.81
2022-09-11T11:43:17.955Z,94827.56
2022-09-11T11:45:51.437Z,94820.66
2022-09-11T11:48:26.316Z,94814.78
2022-09-11T11:50:58.110Z,94734.09
2022-09-11T11:53:31.476Z,94807.59
2022-09-11T11:56:10.196Z,94799.69
2022-09-11T11:58:48.590Z,94789.22
2022-09-11T12:01:25.522Z,94810.56
2022-09-11T12:04:00.748Z,94749.91
2022-09-11T12:06:29.395Z,94793.53
2022-09-11T12:08:58.588Z,94797.63
2022-09-11T12:11:32.097Z,94801.28
2022-09-11T12:14:01.905Z,94797.53
2022-09-11T12:16:32.906Z,94781.50
2022-09-11T12:19:08.880Z,94790.22
2022-09-11T12:22:05.768Z,94792.69
2022-09-11T12:24:58.895Z,94773.94
2022-09-11T12:28:11.706Z,94785.03
2022-09-11T12:30:59.938Z,94779.41
2022-09-11T12:33:54.745Z,94771.09
2022-09-11T12:36:51.271Z,94766.75
2022-09-11T12:39:27.812Z,94712.53
2022-09-11T12:42:29.077Z,94770.75
2022-09-11T12:45:00.242Z,94760.69
2022-09-11T12:47:34.898Z,94758.03
2022-09-11T12:50:14.528Z,94758.31
2022-09-11T12:52:51.038Z,94751.31
2022-09-11T12:55:33.300Z,94751.88
2022-09-11T12:58:04.334Z,94743.28
2022-09-11T13:00:41.953Z,94687.88
2022-09-11T13:03:20.734Z,94691.66
2022-09-11T13:05:55.588Z,94732.59
2022-09-11T13:08:27.265Z,94725.38
2022-09-11T13:11:15.580Z,94729.59
2022-09-11T13:13:46.886Z,94733.59
2022-09-11T13:16:26.579Z,94708.25
2022-09-11T13:19:00.556Z,94722.28
2022-09-11T13:21:28.934Z,94723.72
2022-09-11T13:24:01.718Z,94718.47
2022-09-11T13:26:32.280Z,94721.22
2022-09-11T13:29:02.490Z,94718.69
2022-09-11T13:31:36.310Z,94705.09
2022-09-11T13:34:07.941Z,94717.13
2022-09-11T13:36:38.149Z,94699.13
2022-09-11T13:39:08.294Z,94709.97
2022-09-11T13:41:39.720Z,94705.91
2022-09-11T13:44:13.249Z,94706.19
2022-09-11T13:46:52.747Z,94704.69
2022-09-11T13:49:33.657Z,94702.97
2022-09-11T13:52:02.221Z,94702.78
2022-09-11T13:54:34.225Z,94655.69
2022-09-11T13:57:20.497Z,94699.66
2022-09-11T13:59:50.511Z,94699.19
2022-09-11T14:02:51.677Z,94698.94
2022-09-11T14:05:22.815Z,94699.94
2022-09-11T14:08:00.230Z,94689.25
2022-09-11T14:10:32.377Z,94688.22
2022-09-11T14:13:06.571Z,94695.13
2022-09-11T14:15:40.690Z,94674.09
2022-09-11T14:18:15.332Z,94686.16
2022-09-11T14:20:46.593Z,94675.03
2022-09-11T14:23:21.862Z,94668.13
2022-09-11T14:26:08.556Z,94664.91
2022-09-11T14:28:43.037Z,94613.28
2022-09-11T14:31:13.310Z,94671.75
2022-09-11T14:33:43.314Z,94662.44
2022-09-11T14:36:20.235Z,94674.47
2022-09-11T14:38:49.041Z,94670.19
2022-09-11T14:41:17.372Z,94669.31
2022-09-11T14:43:49.370Z,94667.84
2022-09-11T14:46:17.969Z,94665.00
2022-09-11T14:48:47.715Z,94660.69
2022-09-11T14:51:16.031Z,94659.53
2022-09-11T14:53:45.255Z,94667.84
2022-09-11T14:56:13.621Z,94656.84
2022-09-11T14:58:41.924Z,94643.22
2022-09-11T15:01:14.030Z,94660.66
2022-09-11T15:03:42.614Z,94661.31
2022-09-11T15:06:17.791Z,94659.31
2022-09-11T15:08:46.621Z,94661.94
2022-09-11T15:11:16.449Z,94652.94
2022-09-11T15:14:10.903Z,94659.78
2022-09-11T15:16:34.652Z,94654.41
2022-09-11T15:19:02.951Z,94651.78
2022-09-11T15:21:37.309Z,94660.34
2022-09-11T15:24:06.889Z,94653.09
2022-09-11T15:26:36.763Z,94658.69
2022-09-11T15:29:05.321Z,94653.25
2022-09-11T15:31:33.652Z,94651.97
2022-09-11T15:34:05.920Z,94656.31
2022-09-11T15:36:38.238Z,94647.91
2022-09-11T15:39:07.020Z,94650.91
2022-09-11T15:41:35.296Z,94652.00
2022-09-11T15:44:09.980Z,94648.50
2022-09-11T15:46:38.593Z,94645.75
2022-09-11T15:49:07.752Z,94643.09
2022-09-11T15:51:38.952Z,94633.00
2022-09-11T15:54:07.545Z,94643.06
2022-09-11T15:56:36.170Z,94645.75
2022-09-11T15:59:05.061Z,94641.13
2022-09-11T16:01:35.957Z,94639.94
2022-09-11T16:04:07.317Z,94570.75
2022-09-11T16:06:39.026Z,94628.31
2022-09-11T16:09:10.209Z,94630.56
2022-09-11T16:11:39.668Z,94627.75
2022-09-11T16:14:08.956Z,94629.63
2022-09-11T16:16:54.588Z,94617.88
2022-09-11T16:19:28.153Z,94613.19
2022-09-11T16:21:59.472Z,94616.25
2022-09-11T16:24:29.527Z,94620.50
2022-09-11T16:26:57.876Z,94622.09
2022-09-11T16:29:38.457Z,94616.78
2022-09-11T16:32:28.499Z,94620.53
2022-09-11T16:34:59.621Z,94565.84
2022-09-11T16:37:32.848Z,94623.34
2022-09-11T16:40:02.155Z,94623.41
2022-09-11T16:42:31.195Z,94617.16
2022-09-11T16:44:59.560Z,94613.56
2022-09-11T16:47:30.464Z,94614.34
2022-09-11T16:50:07.453Z,94608.13
2022-09-11T16:52:38.661Z,94601.84
2022-09-11T16:55:09.785Z,94606.53
2022-09-11T16:57:38.295Z,94611.28
2022-09-11T17:00:08.321Z,94588.34
2022-09-11T17:02:37.551Z,94617.22
2022-09-11T17:05:06.947Z,94584.59
2022-09-11T17:07:35.560Z,94621.47
2022-09-11T17:10:05.856Z,94632.38
2022-09-11T17:12:34.185Z,94625.31
2022-09-11T17:15:02.481Z,94634.69
2022-09-11T17:17:31.387Z,94636.63
2022-09-11T17:19:59.673Z,94640.53
2022-09-11T17:22:28.118Z,94645.16
2022-09-11T17:24:56.879Z,94645.53
2022-09-11T17:27:27.554Z,94644.41
2022-09-11T17:29:55.840Z,94652.13
2022-09-11T17:32:28.281Z,94644.81
2022-09-11T17:34:58.253Z,94645.53
2022-09-11T17:37:27.131Z,94653.34
2022-09-11T17:39:55.593Z,94657.22
2022-09-11T17:42:24.140Z,94662.66
2022-09-11T17:44:53.845Z,94670.78
2022-09-11T17:47:22.617Z,94675.78
2022-09-11T17:49:51.151Z,94675.84
2022-09-11T17:52:20.540Z,94694.03
2022-09-11T17:54:49.124Z,94697.94
2022-09-11T17:57:17.407Z,94709.25
2022-09-11T17:59:45.635Z,94718.56
2022-09-11T18:02:15.479Z,94747.63
2022-09-11T18:04:44.355Z,94751.81
2022-09-11T18:07:12.766Z,94769.97
2022-09-11T18:09:41.063Z,94783.47
2022-09-11T18:12:10.106Z,94805.75
2022-09-11T18:14:39.431Z,94814.19
2022-09-11T18:17:07.859Z,94812.28
2022-09-11T18:19:38.981Z,94830.81
2022-09-11T18:22:13.247Z,94770.06
2022-09-11T18:24:41.561Z,94831.44
2022-09-11T18:27:11.712Z,94834.97
2022-09-11T18:29:40.797Z,94751.59
2022-09-11T18:32:10.279Z,94827.91
2022-09-11T18:34:40.220Z,94841.81
2022-09-11T18:37:08.851Z,94854.19
2022-09-11T18:39:38.581Z,94863.47
2022-09-11T18:42:07.606Z,94874.78
2022-09-11T18:44:35.997Z,94871.78
2022-09-11T18:47:04.578Z,94871.91
2022-09-11T18:49:34.842Z,94876.53
2022-09-11T18:52:04.655Z,94827.44
2022-09-11T18:54:33.843Z,94887.06
2022-09-11T18:57:03.599Z,94896.63
2022-09-11T18:59:32.669Z,94894.00
2022-09-11T19:02:01.356Z,94898.63
2022-09-11T19:04:29.925Z,94906.63
2022-09-11T19:07:00.186Z,94899.50
2022-09-11T19:09:30.059Z,94891.69
2022-09-11T19:12:00.232Z,94886.00
2022-09-11T19:14:28.821Z,94890.28
2022-09-11T19:16:57.218Z,94892.00
2022-09-11T19:19:25.959Z,94864.69
2022-09-11T19:21:54.338Z,94881.94
2022-09-11T19:24:23.812Z,94872.88
2022-09-11T19:26:53.799Z,94899.16
2022-09-11T19:29:22.768Z,94897.47
2022-09-11T19:31:52.788Z,94903.13
2022-09-11T19:34:21.227Z,94902.44
2022-09-11T19:36:52.551Z,94902.19
2022-09-11T19:39:21.926Z,94899.41
2022-09-11T19:41:50.413Z,94862.97
2022-09-11T19:44:20.880Z,94901.28
2022-09-11T19:46:53.465Z,94903.75
2022-09-11T19:49:21.765Z,94887.38
2022-09-11T19:51:53.512Z,94894.56
2022-09-11T19:54:22.515Z,94881.94
2022-09-11T19:56:51.208Z,94893.25
2022-09-11T19:59:20.995Z,94889.47
2022-09-11T20:01:49.469Z,94887.47
2022-09-11T20:04:19.258Z,94888.63
2022-09-11T20:09:31.803Z,94885.47
2022-09-11T20:12:01.551Z,94885.41
2022-09-11T20:14:32.362Z,94890.44
2022-09-11T20:17:01.137Z,94892.16
2022-09-11T20:19:29.764Z,94893.22
2022-09-11T20:21:58.178Z,94893.34
2022-09-11T20:24:26.625Z,94888.72
2022-09-11T20:26:55.157Z,94898.09
2022-09-11T20:29:23.523Z,94895.41
2022-09-11T20:31:55.198Z,94898.00
2022-09-11T20:34:27.971Z,94907.41
2022-09-11T20:37:00.803Z,94904.34
2022-09-11T20:39:29.293Z,94901.13
2022-09-11T20:41:57.643Z,94899.22
2022-09-11T20:44:26.782Z,94898.91
2022-09-11T20:46:56.463Z,94897.09
2022-09-11T20:49:24.888Z,94891.53
2022-09-11T20:51:53.111Z,94884.47
2022-09-11T20:54:21.688Z,94897.09
2022-09-11T20:56:50.033Z,94879.69
2022-09-11T20:59:18.314Z,94885.50
2022-09-11T21:01:46.647Z,94890.47
2022-09-11T21:04:16.366Z,94827.38
2022-09-11T21:06:44.671Z,94878.41
2022-09-11T21:09:13.157Z,94886.66
2022-09-11T21:11:42.689Z,94889.53
2022-09-11T21:14:12.180Z,94888.63
2022-09-11T21:16:40.498Z,94893.72
2022-09-11T21:19:09.612Z,94890.81
2022-09-11T21:21:40.227Z,94890.25
2022-09-11T21:24:14.039Z,94899.31
2022-09-11T21:26:42.592Z,94893.38
2022-09-11T21:29:14.030Z,94896.47
2022-09-11T21:31:42.338Z,94900.38
2022-09-11T21:34:11.219Z,94896.16
2022-09-11T21:36:41.101Z,94893.41
2022-09-11T21:39:09.551Z,94893.84
2022-09-11T21:41:37.874Z,94898.53
2022-09-11T21:44:06.109Z,94898.63
2022-09-11T21:46:34.778Z,94833.22
2022-09-11T21:49:03.060Z,94898.41
2022-09-11T21:51:31.497Z,94904.00
2022-09-11T21:54:02.044Z,94895.72
2022-09-11T21:56:32.140Z,94890.69
2022-09-11T21:59:01.352Z,94895.03
2022-09-11T22:01:31.881Z,94881.28
2022-09-11T22:04:01.457Z,94895.16
2022-09-11T22:06:30.863Z,94872.09
2022-09-11T22:09:00.955Z,94905.28
2022-09-11T22:11:29.315Z,94905.66
2022-09-11T22:13:57.665Z,94913.00
2022-09-11T22:16:26.093Z,94925.72
2022-09-11T22:18:55.502Z,94922.94
2022-09-11T22:21:24.128Z,94915.00
2022-09-11T22:23:52.640Z,94922.28
2022-09-11T22:26:24.140Z,94933.47
2022-09-11T22:28:53.156Z,94927.75
2022-09-11T22:31:24.006Z,94934.06
2022-09-11T22:33:53.851Z,94935.50
2022-09-11T22:36:24.879Z,94933.28
2022-09-11T22:38:53.543Z,94924.63
2022-09-11T22:41:23.895Z,94930.81
2022-09-11T22:43:52.458Z,94838.75
2022-09-11T22:46:21.751Z,94927.28
2022-09-11T22:48:50.114Z,94926.38
2022-09-11T22:51:18.568Z,94846.06
2022-09-11T22:53:47.071Z,94915.41
2022-09-11T22:56:15.748Z,94919.75
2022-09-11T22:58:45.638Z,94917.78
2022-09-11T23:01:21.136Z,94912.41
2022-09-11T23:03:50.749Z,94906.38
2022-09-11T23:06:36.552Z,94903.38
2022-09-11T23:09:05.838Z,94918.06
2022-09-11T23:11:34.114Z,94920.56
2022-09-11T23:14:03.795Z,94924.31
2022-09-11T23:16:32.652Z,94919.97
2022-09-11T23:19:03.143Z,94917.00
2022-09-11T23:21:33.359Z,94917.38
2022-09-11T23:24:02.117Z,94906.00
2022-09-11T23:26:31.162Z,94901.47
2022-09-11T23:28:59.656Z,94901.44
2022-09-11T23:31:31.563Z,94898.88
2022-09-11T23:34:01.647Z,94909.22
2022-09-11T23:36:31.676Z,94905.34
2022-09-11T23:39:00.330Z,94837.56
2022-09-11T23:41:29.671Z,94900.84
2022-09-11T23:43:58.064Z,94907.56
2022-09-11T23:46:26.481Z,94905.56
2022-09-11T23:48:56.171Z,94913.22
2022-09-11T23:51:24.508Z,94912.16
2022-09-11T23:53:52.981Z,94908.25
2022-09-11T23:56:22.575Z,94908.63
2022-09-11T23:58:51.548Z,94903.94
